Terminal Aerodrome Forecast
Issued by NWS

Current Version | Previous Version | Text Only | Print | Product List | Glossary On
Versions: 1 2 3 4 5 6 7 8 9 10 11 12
000
FTUS46 KSGX 291722
TAFTRM
TAF
KTRM 291722Z 2918/3018 VRB05KT P6SM SCT250
     FM300500 33009KT P6SM SKC
     FM301000 VRB05KT P6SM SKC=

USA.gov is the U.S. government's official web portal to all federal, state and local government web resources and services.